Aérodrome :
LOGIN :

S'inscrire | Disclaimer

   EN    FR    IT 

 










Légende :    VFR   VFR Marginal   IFR   IFR Intensif   IFR Très Intensif
Visi : 
Plafond : 
>= 8 km
>= 3000ft
5 à 8 km
1000 à 3000 ft
1500m à 5 km
500 à 1000 ft
800 à 1500m
200 à 500 ft
< 800m
< 200 ft
Symboles :   Orages  Brouillard  Fortes neiges  Fortes précipitations  Vent > 20 kt
SIGMETs :   Divers  Orages  Givrage  Turbulence  Onde Orograph.  Cendres Volcan.






- Altitude de l'aérodrome : 1276 ft
- Code IATA : STR


EDDS - Stuttgart

DERNIER METAR :
  • 100350Z 28010KT 9999 FEW025 02/M01 Q1023

METARs EXPIRÉS :
  • 100320Z 29007KT 260V320 9999 FEW025 02/M00 Q1022
  • 100250Z 29010KT 9999 FEW025 02/M00 Q1022
  • 100220Z 29010KT 9999 FEW019 03/M00 Q1022
  • 100150Z 29012KT 260V330 9999 FEW019 03/00 Q1021
  • 100120Z 30012KT 270V330 9999 BKN021 04/01 Q1020

TAF TAF EDDS
Valide du 10 à 00h jusqu'au 11 à 00h UTC


092300Z 1000/1024 28010KT 9999 BKN015
TEMPO 1000/1002 4000 -RADZ BKN008
BECMG 1006/1009 25005KT
BECMG 1014/1017 16003KT



MET'MAP, la Météo Aéronautique d'un coup d'oeil ! - Copyright ORBIFLY Décembre 2007 - Disclaimer

ORBIFLY MET'MAP TEAM :

Programmation & Développement : Alexandra Zaïnal
Sur une idée originale de : Baudouin d'Aumeries
Assistance à la programmation : Marc-Olivier Méhu
Soutien technique & logistique : Manuel Goepfert

Contact : metmap@orbifly.com




SOURCES & CREDITS :

   NOAA